Latest Weather Observations for Little Bay

IDN60801

Issued at 9:33 am EDT Friday 27 February 2015 (issued every 30 minutes, with the page automatically refreshed every 10 minutes)

About weather observations | Map of weather stations | Latest weather observations for NSW | Other Formats
Station Details ID: 066051 Name: LITTLE BAY (THE COAST GOLF CLUB) Lat: -33.98 Lon: 151.25 Height: 22.0 m
Data from the previous 72 hours. | See also: Recent months for locations in New South Wales
Date/Time
EDT
Temp
°C
App
Temp
°C
Dew
Point
Rel
Hum
%
Delta-T
°C
Wind Press
QNH
hPa
Press
MSL
hPa
Rain
since 9 am
mm
Dir
 
Spd
km/h
Gust
km/h
Spd
kts
Gust
kts
27/09:30am - - - - - SE 17 22 9 12 - - -
27/09:00am - - - - - SE 22 28 12 15 - - -
27/08:30am - - - - - SSE 19 26 10 14 - - -
27/08:00am - - - - - SSE 20 30 11 16 - - -
27/07:30am - - - - - SSE 19 24 10 13 - - -
27/07:00am - - - - - SE 15 20 8 11 - - -
27/06:30am - - - - - SSW 11 15 6 8 - - -
27/06:00am - - - - - SSW 13 19 7 10 - - -
27/05:30am - - - - - SSW 15 20 8 11 - - -
27/05:00am - - - - - S 19 24 10 13 - - -
27/04:30am - - - - - S 17 22 9 12 - - -
27/04:00am - - - - - SSW 17 22 9 12 - - -
27/03:30am - - - - - SSW 17 24 9 13 - - -
27/03:00am - - - - - SSW 17 24 9 13 - - -
27/02:30am - - - - - SSW 17 26 9 14 - - -
27/02:00am - - - - - SW 11 17 6 9 - - -
27/01:30am - - - - - SSW 11 15 6 8 - - -
27/01:00am - - - - - SSW 7 11 4 6 - - -
27/12:30am - - - - - SW 6 11 3 6 - - -
27/12:00am - - - - - SW 6 7 3 4 - - -
 
Date/Time
EDT
Temp
°C
App
Temp
°C
Dew
Point
Rel
Hum
%
Delta-T
°C
Wind Press
QNH
hPa
Press
MSL
hPa
Rain
since 9 am
mm
Dir
 
Spd
km/h
Gust
km/h
Spd
kts
Gust
kts
26/11:30pm - - - - - CALM 0 0 0 0 - - -
26/11:00pm - - - - - CALM 0 0 0 0 - - -
26/10:30pm - - - - - WNW 2 4 1 2 - - -
26/10:00pm - - - - - WSW 6 7 3 4 - - -
26/09:30pm - - - - - WSW 7 9 4 5 - - -
26/09:00pm - - - - - WSW 2 6 1 3 - - -
26/08:30pm - - - - - CALM 0 4 0 2 - - -
26/08:00pm - - - - - NE 13 19 7 10 - - -
26/07:30pm - - - - - ESE 6 7 3 4 - - -
26/07:00pm - - - - - CALM 0 2 0 1 - - -
26/06:30pm - - - - - NNE 6 7 3 4 - - -
26/06:00pm - - - - - ENE 7 9 4 5 - - -
26/05:30pm - - - - - NE 11 13 6 7 - - -
26/05:00pm - - - - - NE 11 15 6 8 - - -
26/04:30pm - - - - - NNE 15 20 8 11 - - -
26/04:00pm - - - - - NNE 13 19 7 10 - - -
26/03:30pm - - - - - NE 13 19 7 10 - - -
26/03:00pm - - - - - NE 13 19 7 10 - - -
26/02:30pm - - - - - NE 11 17 6 9 - - -
26/02:00pm - - - - - ENE 9 13 5 7 - - -
26/01:30pm - - - - - NE 9 15 5 8 - - -
26/01:00pm - - - - - NE 9 13 5 7 - - -
26/12:30pm - - - - - ENE 7 9 4 5 - - -
26/12:00pm - - - - - ENE 4 6 2 3 - - -
26/11:30am - - - - - SSW 6 7 3 4 - - -
26/11:00am - - - - - SSW 6 9 3 5 - - -
26/10:30am - - - - - WSW 7 11 4 6 - - -
26/10:00am - - - - - WSW 9 13 5 7 - - -
26/09:30am - - - - - W 9 13 5 7 - - -
26/09:00am - - - - - W 9 13 5 7 - - -
26/08:30am - - - - - W 9 11 5 6 - - -
26/08:00am - - - - - WSW 4 6 2 3 - - -
26/07:30am - - - - - W 4 6 2 3 - - -
26/07:00am - - - - - CALM 0 0 0 0 - - -
26/06:30am - - - - - CALM 0 0 0 0 - - -
26/06:00am - - - - - SSW 2 4 1 2 - - -
26/05:30am - - - - - S 6 6 3 3 - - -
26/05:00am - - - - - ESE 6 7 3 4 - - -
26/04:30am - - - - - SE 6 9 3 5 - - -
26/04:00am - - - - - SE 9 13 5 7 - - -
26/03:30am - - - - - SSE 7 11 4 6 - - -
26/03:00am - - - - - SSW 6 9 3 5 - - -
26/02:30am - - - - - SSW 7 11 4 6 - - -
26/02:00am - - - - - SW 7 15 4 8 - - -
26/01:30am - - - - - ESE 6 9 3 5 - - -
26/01:00am - - - - - ESE 6 7 3 4 - - -
26/12:30am - - - - - ESE 7 9 4 5 - - -
26/12:00am - - - - - SE 11 15 6 8 - - -
 
Date/Time
EDT
Temp
°C
App
Temp
°C
Dew
Point
Rel
Hum
%
Delta-T
°C
Wind Press
QNH
hPa
Press
MSL
hPa
Rain
since 9 am
mm
Dir
 
Spd
km/h
Gust
km/h
Spd
kts
Gust
kts
25/11:30pm - - - - - SE 9 13 5 7 - - -
25/11:00pm - - - - - ESE 9 13 5 7 - - -
25/10:30pm - - - - - SE 13 17 7 9 - - -
25/10:00pm - - - - - SE 15 19 8 10 - - -
25/09:30pm - - - - - SE 17 20 9 11 - - -
25/09:00pm - - - - - SE 17 20 9 11 - - -
25/08:30pm - - - - - SSE 17 22 9 12 - - -
25/08:00pm - - - - - SSE 19 24 10 13 - - -
25/07:30pm - - - - - SSE 22 28 12 15 - - -
25/07:00pm - - - - - SSE 17 24 9 13 - - -
25/06:30pm - - - - - SSE 15 20 8 11 - - -
25/06:00pm - - - - - SSE 22 30 12 16 - - -
25/05:30pm - - - - - SSE 20 26 11 14 - - -
25/05:00pm - - - - - SE 20 28 11 15 - - -
25/04:30pm - - - - - SSE 19 24 10 13 - - -
25/04:00pm - - - - - SSE 20 26 11 14 - - -
25/03:30pm - - - - - SE 24 32 13 17 - - -
25/03:00pm - - - - - SSE 30 35 16 19 - - -
25/02:30pm - - - - - SSE 28 35 15 19 - - -
25/02:00pm - - - - - SSE 30 39 16 21 - - -
25/01:30pm - - - - - SSE 28 37 15 20 - - -
25/01:00pm - - - - - SSE 24 35 13 19 - - -
25/12:30pm - - - - - S 26 35 14 19 - - -
25/12:00pm - - - - - SSE 28 35 15 19 - - -
25/11:30am - - - - - SE 30 37 16 20 - - -
25/11:00am - - - - - SE 26 37 14 20 - - -
25/10:30am - - - - - SE 30 35 16 19 - - -
25/10:00am - - - - - SE 33 41 18 22 - - -
25/09:30am - - - - - SE 30 37 16 20 - - -
25/09:00am - - - - - ESE 20 32 11 17 - - -
25/08:30am - - - - - ESE 19 26 10 14 - - -
25/08:00am - - - - - WNW 2 6 1 3 - - -
25/07:30am - - - - - SW 11 15 6 8 - - -
25/07:00am - - - - - SW 11 15 6 8 - - -
25/06:30am - - - - - WSW 9 15 5 8 - - -
25/06:00am - - - - - WSW 9 15 5 8 - - -
25/05:30am - - - - - WSW 9 13 5 7 - - -
25/05:00am - - - - - SW 11 19 6 10 - - -
25/04:30am - - - - - SW 7 11 4 6 - - -
25/04:00am - - - - - WSW 11 15 6 8 - - -
25/03:30am - - - - - SW 13 20 7 11 - - -
25/03:00am - - - - - SSW 22 30 12 16 - - -
25/02:30am - - - - - SSW 24 33 13 18 - - -
25/02:00am - - - - - SSW 17 26 9 14 - - -
25/01:30am - - - - - SSW 19 28 10 15 - - -
25/01:00am - - - - - SSW 22 32 12 17 - - -
25/12:30am - - - - - SSW 20 28 11 15 - - -
25/12:00am - - - - - SSW 26 33 14 18 - - -
 
Date/Time
EDT
Temp
°C
App
Temp
°C
Dew
Point
Rel
Hum
%
Delta-T
°C
Wind Press
QNH
hPa
Press
MSL
hPa
Rain
since 9 am
mm
Dir
 
Spd
km/h
Gust
km/h
Spd
kts
Gust
kts
24/11:30pm - - - - - SSW 22 33 12 18 - - -
24/11:00pm - - - - - SSW 28 39 15 21 - - -
24/10:30pm - - - - - S 32 43 17 23 - - -
24/10:00pm - - - - - SSW 26 43 14 23 - - -
24/09:30pm - - - - - SSW 26 33 14 18 - - -
24/09:00pm - - - - - SSW 22 32 12 17 - - -
24/08:30pm - - - - - SSW 28 39 15 21 - - -
24/08:00pm - - - - - SSW 28 35 15 19 - - -
24/07:30pm - - - - - S 26 39 14 21 - - -
24/07:00pm - - - - - S 24 32 13 17 - - -
24/06:30pm - - - - - S 30 41 16 22 - - -
24/06:00pm - - - - - S 28 39 15 21 - - -
24/05:30pm - - - - - S 30 41 16 22 - - -
24/05:00pm - - - - - S 32 43 17 23 - - -
24/04:30pm - - - - - S 33 46 18 25 - - -
24/04:00pm - - - - - S 33 52 18 28 - - -
24/03:30pm - - - - - S 33 44 18 24 - - -
24/03:00pm - - - - - S 37 54 20 29 - - -
24/02:30pm - - - - - S 37 48 20 26 - - -
24/02:00pm - - - - - S 35 52 19 28 - - -
24/01:30pm - - - - - S 39 52 21 28 - - -
24/01:00pm - - - - - SSW 37 50 20 27 - - -
24/12:30pm - - - - - SSW 33 52 18 28 - - -
24/12:21pm - - - - - SSW 32 52 17 28 - - -
24/12:00pm - - - - - SSW 35 48 19 26 - - -
24/11:30am - - - - - SSW 30 44 16 24 - - -
24/11:00am - - - - - SSW 30 41 16 22 - - -
24/10:30am - - - - - S 22 33 12 18 - - -
24/10:00am - - - - - SSW 19 28 10 15 - - -

Other Formats:

Comma delimited format used in spreadsheet applications
http://www.bom.gov.au/fwo/IDN60801/IDN60801.94780.axf

JavaScript Object Notation format (JSON) in row-major order
http://www.bom.gov.au/fwo/IDN60801/IDN60801.94780.json